Time;durP1;ratioP1;P1;durP2;ratioP2;P2;SDS_P1;SDS_P2;PMS_P1;PMS_P2;Temp;Humidity;BMP_temperature;BMP_pressure;BME280_temperature;BME280_humidity;BME280_pressure;Samples;Min_cycle;Max_cycle;Signal;HPM_P1;HPM_P2
2022/05/31 00:01:01;;;;;;;8.80;3.53;;;;;;;10.88;68.79;101135.34;5021574;28;20038;-70
2022/05/31 00:03:26;;;;;;;5.55;3.28;;;;;;;10.83;69.01;101137.56;5019143;28;20025;-70
2022/05/31 00:05:52;;;;;;;5.82;3.30;;;;;;;10.83;69.09;101132.38;5017487;28;20041;-69
2022/05/31 00:08:18;;;;;;;8.48;3.50;;;;;;;10.86;69.42;101129.50;5034441;28;20033;-70
2022/05/31 00:10:43;;;;;;;7.00;3.15;;;;;;;10.82;69.27;101126.38;5014143;28;20030;-70
2022/05/31 00:13:09;;;;;;;6.53;3.38;;;;;;;10.83;69.47;101127.19;5022646;28;20041;-70
2022/05/31 00:15:35;;;;;;;7.65;3.58;;;;;;;10.77;70.47;101128.59;5016340;28;20033;-70
2022/05/31 00:18:01;;;;;;;7.35;4.00;;;;;;;10.74;70.22;101128.06;5020134;28;20491;-70
2022/05/31 00:20:26;;;;;;;10.23;3.83;;;;;;;10.71;69.45;101130.00;5017354;28;20045;-70
2022/05/31 00:22:52;;;;;;;14.70;4.10;;;;;;;10.74;69.38;101120.28;5035685;28;20025;-70
2022/05/31 00:25:18;;;;;;;8.48;3.80;;;;;;;10.77;68.94;101126.00;5020761;28;20025;-70
2022/05/31 00:27:44;;;;;;;13.27;4.05;;;;;;;10.70;69.22;101130.97;5033270;28;20606;-70
2022/05/31 00:30:11;;;;;;;9.65;3.75;;;;;;;10.57;69.33;101133.13;5021523;28;20457;-69
2022/05/31 00:32:41;;;;;;;7.50;3.53;;;;;;;10.52;69.87;101128.38;5018469;28;20025;-70
2022/05/31 00:35:12;;;;;;;6.93;3.50;;;;;;;10.52;70.44;101119.78;5020241;28;21235;-70
2022/05/31 00:37:38;;;;;;;6.63;3.90;;;;;;;10.55;69.91;101121.25;5033558;28;20037;-70
2022/05/31 00:40:05;;;;;;;11.60;4.30;;;;;;;10.54;70.35;101117.84;5019354;28;20083;-70
2022/05/31 00:42:46;;;;;;;9.00;4.20;;;;;;;10.54;70.41;101119.66;5035084;28;20045;-70
2022/05/31 00:45:12;;;;;;;6.90;4.10;;;;;;;10.54;70.19;101122.25;5017622;28;20029;-70
2022/05/31 00:47:38;;;;;;;10.90;5.63;;;;;;;10.58;70.16;101120.97;5035667;28;20186;-69
2022/05/31 00:50:15;;;;;;;7.13;4.57;;;;;;;10.49;70.79;101120.91;5038388;28;20036;-69
2022/05/31 00:52:46;;;;;;;8.00;4.65;;;;;;;10.48;71.34;101114.09;5020388;28;20033;-69
2022/05/31 00:55:20;;;;;;;14.02;4.55;;;;;;;10.46;70.44;101125.56;5017746;28;20041;-69
2022/05/31 00:57:58;;;;;;;10.32;5.47;;;;;;;10.48;70.68;101121.84;5017170;28;20064;-70
2022/05/31 01:00:24;;;;;;;8.52;4.95;;;;;;;10.54;69.90;101114.47;5036745;28;20041;-70
2022/05/31 01:02:50;;;;;;;12.15;5.45;;;;;;;10.44;70.29;101117.13;5034692;28;20053;-70
2022/05/31 01:05:18;;;;;;;14.20;5.15;;;;;;;10.46;70.28;101110.81;5016522;28;20108;-69
2022/05/31 01:07:44;;;;;;;12.95;5.30;;;;;;;10.42;70.38;101117.28;5032832;28;20129;-69
2022/05/31 01:10:12;;;;;;;11.05;4.47;;;;;;;10.36;70.81;101107.50;4998330;28;21229;-70
2022/05/31 01:13:07;;;;;;;10.57;5.45;;;;;;;10.36;71.18;101110.09;5032463;28;20134;-69
2022/05/31 01:16:04;;;;;;;13.93;5.22;;;;;;;10.35;71.39;101115.41;5019385;28;20034;-70
2022/05/31 01:18:59;;;;;;;11.20;5.60;;;;;;;10.36;71.26;101109.25;5014555;28;20037;-70
2022/05/31 01:21:43;;;;;;;12.25;5.10;;;;;;;10.30;71.54;101116.69;5018468;28;20044;-70
2022/05/31 01:24:20;;;;;;;9.05;5.47;;;;;;;10.31;71.35;101109.69;5018773;28;20032;-70
2022/05/31 01:26:45;;;;;;;14.55;6.80;;;;;;;10.29;71.70;101111.59;5031703;28;20036;-70
2022/05/31 01:29:23;;;;;;;9.68;5.43;;;;;;;10.30;71.91;101106.31;5000281;28;20029;-69
2022/05/31 01:31:52;;;;;;;11.98;5.30;;;;;;;10.28;71.90;101115.13;5030755;28;20030;-70
2022/05/31 01:34:36;;;;;;;10.45;5.88;;;;;;;10.27;71.96;101116.94;5016351;28;20411;-70
2022/05/31 01:37:04;;;;;;;8.85;5.20;;;;;;;10.24;71.92;101112.03;5033792;28;20069;-70
2022/05/31 01:39:50;;;;;;;9.52;5.18;;;;;;;10.24;72.38;101117.22;5014411;28;20117;-70
2022/05/31 01:42:19;;;;;;;11.23;5.57;;;;;;;10.27;72.24;101114.34;5017406;28;20107;-70
2022/05/31 01:44:53;;;;;;;11.98;6.40;;;;;;;10.29;72.48;101106.41;4999147;28;20527;-70
2022/05/31 01:47:19;;;;;;;11.55;6.35;;;;;;;10.33;72.65;101103.41;5014950;28;20391;-69
2022/05/31 01:49:49;;;;;;;12.52;5.63;;;;;;;10.25;72.85;101103.28;5015239;28;20025;-70
2022/05/31 01:52:15;;;;;;;9.38;5.80;;;;;;;10.23;73.15;101099.22;5020557;28;20037;-70
2022/05/31 01:55:19;;;;;;;12.18;6.05;;;;;;;10.18;73.39;101091.06;5016040;28;20065;-70
2022/05/31 01:57:50;;;;;;;12.85;6.45;;;;;;;10.13;73.85;101094.94;5031546;28;20476;-70
2022/05/31 02:00:17;;;;;;;14.75;6.65;;;;;;;10.17;73.84;101095.44;5018184;28;20117;-70
2022/05/31 02:02:49;;;;;;;15.18;6.35;;;;;;;10.17;73.67;101095.44;5032680;28;20126;-70
2022/05/31 02:05:16;;;;;;;8.30;5.68;;;;;;;10.18;73.92;101093.66;5016638;28;20040;-70
2022/05/31 02:07:42;;;;;;;11.27;7.03;;;;;;;10.20;74.03;101089.97;5033049;28;20115;-70
2022/05/31 02:10:09;;;;;;;7.90;5.55;;;;;;;10.05;74.41;101087.03;5004469;28;20484;-70
2022/05/31 02:12:40;;;;;;;11.45;6.15;;;;;;;10.12;74.93;101074.34;5002379;28;20928;-70
2022/05/31 02:15:25;;;;;;;12.02;7.05;;;;;;;10.03;75.16;101081.19;5014583;28;20433;-70
2022/05/31 02:18:12;;;;;;;16.48;6.15;;;;;;;10.02;74.94;101086.50;5020310;28;20041;-70
2022/05/31 02:20:56;;;;;;;12.13;6.82;;;;;;;9.99;74.71;101076.47;5020606;28;20080;-69
2022/05/31 02:23:23;;;;;;;9.63;5.78;;;;;;;9.97;74.48;101079.19;5037222;28;20033;-70
2022/05/31 02:25:48;;;;;;;11.15;6.38;;;;;;;10.06;73.96;101078.31;5032305;28;20574;-70
2022/05/31 02:28:14;;;;;;;12.35;6.40;;;;;;;10.01;74.63;101083.13;5022584;28;20040;-69
2022/05/31 02:30:39;;;;;;;11.63;6.43;;;;;;;10.06;73.83;101075.72;5020183;28;20033;-70
2022/05/31 02:33:05;;;;;;;14.02;6.35;;;;;;;10.02;73.91;101078.75;5025358;28;20037;-69
2022/05/31 02:35:31;;;;;;;12.18;5.95;;;;;;;9.96;74.57;101074.16;5020800;28;20037;-70
2022/05/31 02:37:58;;;;;;;12.07;5.85;;;;;;;9.98;74.33;101078.22;5023661;28;20021;-69
2022/05/31 02:40:24;;;;;;;11.57;6.10;;;;;;;9.91;75.00;101069.41;5039357;28;20040;-70
2022/05/31 02:42:49;;;;;;;9.00;5.07;;;;;;;9.88;75.26;101077.47;5019296;28;20041;-70
2022/05/31 02:45:15;;;;;;;8.73;5.55;;;;;;;9.92;75.18;101071.03;5021801;28;20053;-71
2022/05/31 02:47:43;;;;;;;11.13;5.88;;;;;;;9.91;75.58;101072.81;5024117;28;20033;-69
2022/05/31 02:50:09;;;;;;;12.13;5.50;;;;;;;9.89;75.75;101079.91;5041458;28;20373;-69
2022/05/31 02:52:35;;;;;;;10.93;6.03;;;;;;;9.91;74.79;101079.78;5023783;28;20057;-70
2022/05/31 02:55:02;;;;;;;11.52;5.60;;;;;;;9.91;75.01;101078.00;5039059;28;20068;-70
2022/05/31 02:57:27;;;;;;;9.05;5.80;;;;;;;9.92;75.29;101077.03;5029383;28;20041;-69
2022/05/31 03:00:06;;;;;;;7.93;5.22;;;;;;;9.97;75.72;101071.41;5027809;28;20041;-70
2022/05/31 03:03:00;;;;;;;8.65;5.18;;;;;;;10.01;76.13;101071.94;5033710;28;20045;-70
2022/05/31 03:05:45;;;;;;;9.85;5.60;;;;;;;10.01;76.28;101067.56;5023743;28;20474;-70
2022/05/31 03:08:28;;;;;;;12.02;5.57;;;;;;;10.03;76.43;101073.41;5018080;28;20048;-70
2022/05/31 03:11:10;;;;;;;9.25;5.78;;;;;;;10.04;76.70;101071.63;5018091;28;20507;-69
2022/05/31 03:13:38;;;;;;;9.52;5.07;;;;;;;10.04;76.74;101074.22;5016416;28;20033;-70
2022/05/31 03:16:04;;;;;;;10.93;5.60;;;;;;;10.06;76.64;101072.34;5034945;28;20578;-70
2022/05/31 03:18:39;;;;;;;7.75;5.00;;;;;;;10.06;76.17;101065.38;5035842;28;20029;-70
2022/05/31 03:21:14;;;;;;;9.63;5.30;;;;;;;10.07;75.60;101069.56;5036730;28;20048;-70
2022/05/31 03:23:45;;;;;;;11.18;5.85;;;;;;;10.10;75.66;101066.69;5017714;28;20915;-70
2022/05/31 03:26:13;;;;;;;7.50;4.72;;;;;;;10.11;75.42;101073.53;5021130;28;20449;-70
2022/05/31 03:28:39;;;;;;;7.32;4.63;;;;;;;10.13;75.69;101063.81;5034216;28;20487;-70
2022/05/31 03:31:06;;;;;;;9.07;5.57;;;;;;;10.13;75.72;101065.59;5023121;28;20064;-70
2022/05/31 03:33:32;;;;;;;8.32;5.30;;;;;;;10.13;75.94;101063.00;5019287;28;20395;-70
2022/05/31 03:35:58;;;;;;;11.93;5.20;;;;;;;10.14;75.49;101064.63;5018113;28;20891;-70
2022/05/31 03:38:33;;;;;;;12.02;5.13;;;;;;;10.06;75.57;101060.19;5034474;28;20033;-70
2022/05/31 03:41:00;;;;;;;10.43;5.47;;;;;;;10.07;74.57;101046.25;5036262;28;20461;-70
2022/05/31 03:43:39;;;;;;;12.63;5.38;;;;;;;10.08;74.65;101057.47;5036168;28;20041;-70
2022/05/31 03:46:20;;;;;;;12.55;5.43;;;;;;;9.99;75.27;101053.94;5035447;28;20041;-69
2022/05/31 03:49:09;;;;;;;10.52;4.88;;;;;;;10.02;75.32;101055.44;5009544;28;20145;-70
2022/05/31 03:51:42;;;;;;;11.23;4.55;;;;;;;10.04;74.97;101056.94;5020296;28;20026;-70
2022/05/31 03:54:15;;;;;;;11.15;5.25;;;;;;;9.98;74.71;101059.28;5022430;28;20034;-70
2022/05/31 03:56:59;;;;;;;9.52;4.63;;;;;;;9.95;75.68;101052.63;5021954;28;20232;-70
2022/05/31 03:59:25;;;;;;;9.85;5.05;;;;;;;10.05;75.58;101061.13;5022730;28;20065;-70
2022/05/31 04:01:51;;;;;;;13.05;6.10;;;;;;;10.00;75.55;101053.00;5001975;28;20484;-70
2022/05/31 04:04:16;;;;;;;6.15;4.28;;;;;;;9.93;76.21;101046.78;5021443;28;20033;-70
2022/05/31 04:06:42;;;;;;;7.00;3.97;;;;;;;9.91;76.90;101052.09;5038347;28;20052;-70
2022/05/31 04:09:08;;;;;;;6.25;4.07;;;;;;;9.94;77.12;101051.81;5017499;28;20051;-70
2022/05/31 04:11:34;;;;;;;9.52;5.05;;;;;;;9.93;77.28;101045.00;5020723;28;20017;-70
2022/05/31 04:14:07;;;;;;;12.45;4.60;;;;;;;9.93;77.97;101042.41;5036484;28;20038;-70
2022/05/31 04:16:42;;;;;;;8.05;4.47;;;;;;;9.93;78.31;101049.38;5018709;28;20033;-70
2022/05/31 04:19:08;;;;;;;8.30;4.93;;;;;;;9.97;78.28;101049.88;5017589;28;20111;-70
2022/05/31 04:21:33;;;;;;;7.60;4.55;;;;;;;10.19;75.27;101052.06;5006377;28;20033;-70
2022/05/31 04:24:01;;;;;;;8.77;4.65;;;;;;;10.06;75.35;101042.06;5035746;28;20075;-70
2022/05/31 04:26:32;;;;;;;7.03;4.20;;;;;;;10.00;76.07;101036.63;5019678;28;20033;-70
2022/05/31 04:29:16;;;;;;;11.93;4.70;;;;;;;10.00;76.11;101050.41;5022121;28;20561;-69
2022/05/31 04:32:00;;;;;;;6.32;3.63;;;;;;;10.13;73.92;101043.09;5021517;28;20040;-70
2022/05/31 04:34:41;;;;;;;6.35;3.90;;;;;;;10.12;73.88;101048.41;5034020;28;20454;-69
2022/05/31 04:37:07;;;;;;;12.00;4.20;;;;;;;10.13;72.74;101052.63;5036237;28;20041;-70
2022/05/31 04:40:02;;;;;;;6.05;3.72;;;;;;;10.13;72.34;101050.88;5015638;28;20049;-70
2022/05/31 04:42:47;;;;;;;8.60;3.97;;;;;;;10.17;71.92;101046.22;5021858;28;20111;-70
2022/05/31 04:45:31;;;;;;;9.07;3.70;;;;;;;10.07;72.91;101045.44;5020530;28;20048;-70
2022/05/31 04:48:03;;;;;;;;;;;;;;;10.12;72.86;101048.41;5005018;28;20044;-69
2022/05/31 04:50:30;;;;;;;7.25;3.70;;;;;;;10.06;73.29;101043.84;5037033;28;19913;-70
2022/05/31 04:52:55;;;;;;;11.75;4.32;;;;;;;10.11;73.72;101042.44;5015422;28;20045;-70
2022/05/31 04:55:21;;;;;;;13.40;3.95;;;;;;;10.22;73.52;101049.16;5019536;28;20033;-69
2022/05/31 04:57:50;;;;;;;8.80;3.95;;;;;;;10.14;74.43;101038.72;5015932;28;20495;-70
2022/05/31 05:00:16;;;;;;;6.88;3.60;;;;;;;10.18;74.13;101041.84;5020821;28;20056;-70
2022/05/31 05:03:01;;;;;;;10.18;3.70;;;;;;;10.18;74.36;101036.66;5018105;28;20107;-70
2022/05/31 05:05:32;;;;;;;15.38;4.03;;;;;;;10.31;73.22;101039.72;5020038;28;20115;-70
2022/05/31 05:08:03;;;;;;;7.38;3.75;;;;;;;10.20;73.63;101048.50;5029304;28;20029;-69
2022/05/31 05:10:33;;;;;;;7.57;3.80;;;;;;;10.13;73.37;101040.50;5018134;28;20111;-70
2022/05/31 05:13:22;;;;;;;8.60;4.10;;;;;;;10.07;74.16;101035.88;5034039;28;20491;-70
2022/05/31 05:16:12;;;;;;;13.43;4.85;;;;;;;10.20;73.69;101035.53;5035252;28;20037;-70
2022/05/31 05:18:39;;;;;;;9.18;4.38;;;;;;;10.17;74.64;101041.03;5034530;28;20104;-70
2022/05/31 05:21:09;;;;;;;9.98;4.20;;;;;;;10.15;75.03;101037.75;5034099;28;20048;-69
2022/05/31 05:23:38;;;;;;;6.18;4.05;;;;;;;10.19;75.22;101041.69;5031766;28;20063;-70
2022/05/31 05:26:10;;;;;;;15.73;6.22;;;;;;;10.24;75.43;101042.03;5020210;28;20032;-69
2022/05/31 05:31:40;;;;;;;11.30;4.72;;;;;;;10.31;74.39;101053.50;5033898;28;20060;-70
2022/05/31 05:34:24;;;;;;;9.75;5.10;;;;;;;10.27;74.58;101053.91;5034100;28;20084;-69
2022/05/31 05:36:57;;;;;;;10.75;4.93;;;;;;;10.22;75.58;101056.13;5033911;28;20594;-70
2022/05/31 05:39:24;;;;;;;10.85;5.07;;;;;;;10.23;76.16;101053.38;5003904;28;20044;-70
2022/05/31 05:42:09;;;;;;;11.30;4.82;;;;;;;10.36;75.93;101057.41;5020734;28;20426;-70
2022/05/31 05:44:43;;;;;;;12.38;5.30;;;;;;;10.38;75.78;101061.50;5016192;28;20037;-70
2022/05/31 05:47:14;;;;;;;9.63;5.45;;;;;;;10.36;76.55;101060.00;5018439;28;20060;-69
2022/05/31 05:49:41;;;;;;;11.45;5.28;;;;;;;10.39;76.96;101072.69;5017795;28;20029;-70
2022/05/31 05:52:25;;;;;;;11.23;5.32;;;;;;;10.51;77.50;101100.03;5019399;28;20037;-69
2022/05/31 05:55:09;;;;;;;13.35;5.10;;;;;;;10.45;78.05;101098.84;5019449;28;21823;-69
2022/05/31 05:57:54;;;;;;;9.20;3.47;;;;;;;10.45;77.75;101088.47;5017769;28;21247;-69
2022/05/31 06:00:45;;;;;;;8.80;3.67;;;;;;;10.41;77.17;101081.13;5031643;28;20103;-70
2022/05/31 06:03:30;;;;;;;5.72;3.55;;;;;;;10.41;76.71;101100.06;5017890;28;20079;-70
2022/05/31 06:06:03;;;;;;;5.53;3.95;;;;;;;10.39;77.24;101094.22;5032484;28;20152;-70
2022/05/31 06:08:35;;;;;;;7.22;3.75;;;;;;;10.41;77.89;101101.84;5032623;28;20048;-70
2022/05/31 06:11:14;;;;;;;8.23;3.40;;;;;;;10.41;78.29;101096.69;5032543;28;20452;-70
2022/05/31 06:13:48;;;;;;;5.20;2.60;;;;;;;10.43;77.79;101111.09;5034125;28;20404;-70
2022/05/31 06:16:14;;;;;;;7.10;3.00;;;;;;;10.44;77.33;101098.97;5032271;28;20033;-70
2022/05/31 06:18:56;;;;;;;5.60;2.72;;;;;;;10.44;77.67;101097.19;5031054;28;20033;-70
2022/05/31 06:21:24;;;;;;;10.45;3.25;;;;;;;10.46;78.54;101094.47;5017595;28;20029;-70
2022/05/31 06:23:55;;;;;;;9.55;3.67;;;;;;;10.48;80.05;101085.56;5016521;28;20870;-70
2022/05/31 06:26:20;;;;;;;7.03;3.33;;;;;;;10.47;80.72;101088.28;5036626;28;20515;-70
2022/05/31 06:28:57;;;;;;;10.48;3.45;;;;;;;10.51;81.10;101087.88;5009341;28;20028;-70
2022/05/31 06:31:22;;;;;;;8.68;4.55;;;;;;;10.56;81.04;101086.59;5017492;28;20387;-70
2022/05/31 06:33:48;;;;;;;5.22;3.22;;;;;;;10.59;81.02;101088.91;5012673;28;20037;-70
2022/05/31 06:36:18;;;;;;;7.78;3.72;;;;;;;10.65;80.53;101094.31;5017590;28;20075;-70
2022/05/31 06:38:45;;;;;;;7.53;3.25;;;;;;;10.56;80.42;101092.59;5012581;28;20423;-71
2022/05/31 06:41:11;;;;;;;8.65;3.92;;;;;;;10.59;80.75;101089.72;5017742;28;20038;-70
2022/05/31 06:43:56;;;;;;;8.68;4.03;;;;;;;10.59;80.74;101096.69;5013701;28;20083;-70
2022/05/31 06:46:44;;;;;;;9.70;3.88;;;;;;;10.60;81.76;101091.31;5014776;28;20045;-70
2022/05/31 06:49:30;;;;;;;6.35;3.58;;;;;;;10.64;82.28;101084.91;5020856;28;20095;-70
2022/05/31 06:58:24;;;;;;;7.55;4.00;;;;;;;10.73;83.96;101064.22;5024706;28;20084;-71
2022/05/31 07:00:53;;;;;;;11.80;4.53;;;;;;;10.65;82.17;101046.81;5008182;28;20303;-70
2022/05/31 07:03:20;;;;;;;11.25;3.58;;;;;;;10.75;80.65;101051.91;5039893;28;20166;-70
2022/05/31 07:05:47;;;;;;;9.23;4.00;;;;;;;10.78;81.60;101046.44;5031790;28;20033;-70
2022/05/31 07:08:16;;;;;;;5.38;3.20;;;;;;;10.87;81.46;101055.91;5022578;28;20069;-70
2022/05/31 07:10:58;;;;;;;10.38;3.67;;;;;;;11.06;81.71;101045.31;5025779;28;20038;-70
2022/05/31 07:13:42;;;;;;;16.75;4.53;;;;;;;11.24;81.56;101057.41;5023022;28;20060;-70
2022/05/31 07:16:27;;;;;;;5.68;3.40;;;;;;;11.37;81.37;101052.59;5027357;28;20518;-70
2022/05/31 07:19:11;;;;;;;10.25;4.05;;;;;;;11.52;81.34;101050.25;5029165;28;20577;-70
2022/05/31 07:21:41;;;;;;;10.48;4.68;;;;;;;11.67;80.50;101059.06;5024672;28;20515;-70
2022/05/31 07:24:07;;;;;;;7.65;4.10;;;;;;;11.72;78.59;101057.81;5028901;28;20045;-70
2022/05/31 07:26:35;;;;;;;6.80;3.53;;;;;;;11.78;78.98;101065.78;5044619;28;20397;-70
2022/05/31 07:29:01;;;;;;;8.77;4.13;;;;;;;11.81;77.64;101059.44;5009545;28;20042;-70
2022/05/31 07:31:26;;;;;;;6.70;3.63;;;;;;;11.86;77.91;101064.97;5043603;28;20029;-70
2022/05/31 07:34:19;;;;;;;6.65;3.90;;;;;;;11.91;78.02;101064.56;5026294;28;20038;-70
2022/05/31 07:36:45;;;;;;;9.25;4.10;;;;;;;11.89;77.51;101056.88;5025304;28;20723;-70
2022/05/31 07:39:15;;;;;;;8.18;3.83;;;;;;;12.06;76.64;101052.56;5027099;28;20398;-70
2022/05/31 07:41:42;;;;;;;9.25;4.13;;;;;;;12.16;77.08;101048.03;5025568;28;20029;-70
2022/05/31 07:44:09;;;;;;;6.82;3.58;;;;;;;12.29;76.84;101052.75;5043660;28;20041;-70
2022/05/31 07:46:35;;;;;;;8.75;4.00;;;;;;;12.37;77.06;101055.34;5024843;28;20038;-69
2022/05/31 07:49:01;;;;;;;8.15;3.75;;;;;;;12.44;76.69;101053.75;5042017;28;20075;-70
2022/05/31 07:51:49;;;;;;;8.13;3.78;;;;;;;12.64;74.95;101054.25;5040395;28;20034;-69
2022/05/31 07:54:33;;;;;;;5.05;3.03;;;;;;;12.96;75.51;101051.75;5027161;28;20107;-70
2022/05/31 08:00:31;;;;;;;7.20;3.65;;;;;;;14.05;70.83;101046.81;5027205;28;20053;-70
2022/05/31 08:02:57;;;;;;;8.13;3.67;;;;;;;14.47;69.17;101051.56;5042287;28;20577;-69
2022/05/31 08:05:23;;;;;;;11.07;3.80;;;;;;;14.60;66.50;101054.44;5007431;28;20048;-70
2022/05/31 08:07:49;;;;;;;8.20;3.90;;;;;;;14.49;66.61;101049.59;5023148;28;20040;-70
2022/05/31 08:10:17;;;;;;;12.68;4.65;;;;;;;14.29;67.64;101046.63;5027314;28;20483;-69
2022/05/31 08:12:42;;;;;;;12.40;4.03;;;;;;;14.53;68.17;101052.66;5026625;28;20025;-70
2022/05/31 08:15:09;;;;;;;6.28;3.10;;;;;;;15.15;67.53;101049.81;5041362;28;20040;-69
2022/05/31 08:17:34;;;;;;;8.55;3.45;;;;;;;15.90;63.50;101039.31;5043042;28;20057;-70
2022/05/31 08:20:00;;;;;;;10.82;3.33;;;;;;;15.86;59.95;101045.88;5027617;28;20091;-69
2022/05/31 08:22:25;;;;;;;7.43;3.67;;;;;;;15.64;60.69;101037.97;5027499;28;20495;-70
2022/05/31 08:24:51;;;;;;;11.05;4.70;;;;;;;15.54;62.89;101045.31;5028551;28;20033;-69
2022/05/31 08:27:16;;;;;;;7.65;3.60;;;;;;;15.41;63.81;101045.13;5026107;28;20040;-70
2022/05/31 08:29:42;;;;;;;8.52;3.97;;;;;;;15.62;61.56;101045.19;5038706;28;20029;-70
2022/05/31 08:32:08;;;;;;;8.25;3.47;;;;;;;15.97;61.60;101037.53;5024154;28;20470;-70
2022/05/31 08:34:33;;;;;;;7.03;3.65;;;;;;;15.80;62.15;101036.16;5023986;28;20067;-70
2022/05/31 08:36:59;;;;;;;9.27;3.90;;;;;;;15.41;62.27;101038.09;5022733;28;20021;-70
2022/05/31 08:39:25;;;;;;;7.53;3.35;;;;;;;15.38;63.26;101034.03;5021938;28;20022;-70
2022/05/31 08:42:01;;;;;;;9.38;3.42;;;;;;;15.65;63.59;101031.78;5021390;28;20037;-70
2022/05/31 08:44:48;;;;;;;10.98;4.07;;;;;;;15.72;61.88;101032.63;5035864;28;20053;-70
2022/05/31 08:47:36;;;;;;;11.02;4.45;;;;;;;15.27;62.86;101025.84;5023101;28;20483;-70
2022/05/31 08:53:24;;;;;;;10.48;5.85;;;;;;;15.60;62.40;101028.09;5023479;28;20030;-70
2022/05/31 08:58:55;;;;;;;13.60;5.95;;;;;;;17.74;57.47;101015.53;5020985;28;20713;-70
2022/05/31 09:01:26;;;;;;;13.10;5.90;;;;;;;18.42;54.66;101012.84;5039582;28;20521;-70
2022/05/31 09:03:56;;;;;;;11.45;5.00;;;;;;;18.89;52.68;101011.97;5024384;28;20184;-70
2022/05/31 09:06:27;;;;;;;11.32;5.70;;;;;;;19.04;52.60;101004.66;5039609;28;20061;-70
2022/05/31 09:09:05;;;;;;;10.57;4.75;;;;;;;19.49;51.05;101015.19;5023135;28;20036;-69
2022/05/31 09:11:39;;;;;;;6.88;3.97;;;;;;;18.75;51.73;101013.81;5023855;28;20483;-70
2022/05/31 09:14:16;;;;;;;8.90;3.80;;;;;;;19.28;52.00;101018.13;5022948;28;20043;-70
2022/05/31 09:17:03;;;;;;;7.95;4.25;;;;;;;19.20;50.51;101022.59;5021175;28;20512;-70
2022/05/31 09:19:44;;;;;;;7.43;4.13;;;;;;;19.27;50.91;101025.22;5021493;28;20534;-70
2022/05/31 09:22:10;;;;;;;6.68;3.45;;;;;;;19.31;49.82;101023.78;5032695;28;20037;-70
2022/05/31 09:24:45;;;;;;;7.82;3.63;;;;;;;19.68;50.25;101018.75;5024888;28;20053;-70
2022/05/31 09:27:31;;;;;;;8.73;3.85;;;;;;;19.24;47.32;101025.63;5026546;28;20033;-70
2022/05/31 09:30:07;;;;;;;10.63;3.50;;;;;;;19.34;49.77;101019.94;5022700;28;20045;-70
2022/05/31 09:32:57;;;;;;;7.10;4.00;;;;;;;19.38;49.19;101023.75;5029239;28;20164;-70
2022/05/31 09:35:50;;;;;;;7.07;3.42;;;;;;;19.45;50.35;101021.91;5045474;28;20090;-70
2022/05/31 09:38:28;;;;;;;18.30;4.85;;;;;;;19.91;49.36;101020.06;5026928;28;20037;-70
2022/05/31 09:41:07;;;;;;;6.80;2.38;;;;;;;20.26;48.56;101012.53;5029435;28;20033;-70
2022/05/31 09:43:45;;;;;;;5.25;2.63;;;;;;;20.31;47.26;101011.91;5024273;28;20475;-70
2022/05/31 09:46:31;;;;;;;4.40;2.50;;;;;;;20.48;45.62;101015.59;5043126;28;20403;-70
2022/05/31 09:48:58;;;;;;;6.72;2.55;;;;;;;20.10;47.27;101015.69;5042692;28;20039;-70
2022/05/31 09:51:38;;;;;;;5.97;2.85;;;;;;;20.24;45.91;101011.94;5027171;28;20429;-70
2022/05/31 09:57:35;;;;;;;5.93;2.17;;;;;;;20.33;45.84;101010.66;5027462;28;20487;-70
2022/05/31 10:00:27;;;;;;;4.82;2.08;;;;;;;20.29;43.34;101004.19;5019345;28;20046;-70
2022/05/31 10:03:31;;;;;;;4.88;2.88;;;;;;;20.32;44.91;100995.84;5025828;28;20136;-70
2022/05/31 10:06:15;;;;;;;6.60;2.67;;;;;;;20.47;42.90;100992.09;5023089;28;20033;-69
2022/05/31 10:08:41;;;;;;;6.45;2.38;;;;;;;20.24;44.13;100993.50;5042978;28;20037;-70
2022/05/31 10:11:14;;;;;;;6.18;2.83;;;;;;;20.01;45.35;100994.09;5026970;28;20024;-70
2022/05/31 10:13:44;;;;;;;5.75;3.97;;;;;;;19.90;46.62;100995.56;5027847;28;20147;-70
2022/05/31 10:16:32;;;;;;;7.47;2.63;;;;;;;19.75;44.48;100987.19;5040815;28;20033;-70
2022/05/31 10:19:01;;;;;;;4.65;2.83;;;;;;;19.69;45.49;100988.00;5025519;28;20063;-70
2022/05/31 10:21:42;;;;;;;5.00;2.55;;;;;;;20.17;45.86;100985.69;5027356;28;20034;-70
2022/05/31 10:24:16;;;;;;;5.70;3.25;;;;;;;20.17;44.97;100982.22;5026914;28;20033;-70
2022/05/31 10:27:18;;;;;;;5.28;3.22;;;;;;;20.72;45.79;100978.91;5022946;28;20049;-70
2022/05/31 10:29:53;;;;;;;;;;;;;;;20.71;46.58;100974.66;5034932;28;20044;-70
2022/05/31 10:33:03;;;;;;;8.55;3.58;;;;;;;21.31;45.22;100976.59;5019525;28;19963;-70
2022/05/31 10:35:30;;;;;;;7.97;3.08;;;;;;;21.45;41.66;100964.88;5005291;28;20048;-70
2022/05/31 10:38:05;;;;;;;4.40;2.28;;;;;;;21.30;44.92;100967.88;5022152;28;20436;-70
2022/05/31 10:40:37;;;;;;;10.75;4.15;;;;;;;21.30;44.35;100959.16;5023627;28;20038;-70
2022/05/31 10:43:15;;;;;;;11.30;2.90;;;;;;;21.42;42.72;100969.75;5037306;28;20036;-70
2022/05/31 10:45:42;;;;;;;12.30;4.00;;;;;;;21.45;43.21;100953.53;5024208;28;20034;-70
2022/05/31 10:48:07;;;;;;;7.22;3.42;;;;;;;21.29;43.19;100962.84;5021215;28;20076;-70
2022/05/31 10:50:50;;;;;;;9.90;3.03;;;;;;;21.51;43.64;100960.53;5026967;28;20113;-70
2022/05/31 10:53:30;;;;;;;6.13;3.08;;;;;;;21.13;42.48;100954.50;5027661;28;20029;-70
2022/05/31 10:56:16;;;;;;;7.30;3.08;;;;;;;20.90;41.15;100954.41;5029287;28;20036;-70
2022/05/31 10:58:58;;;;;;;6.57;2.42;;;;;;;21.08;41.75;100951.75;5026543;28;20045;-71
2022/05/31 11:01:33;;;;;;;12.47;3.53;;;;;;;21.02;43.46;100950.00;5030767;28;20076;-70
2022/05/31 11:04:20;;;;;;;8.52;3.47;;;;;;;20.55;42.52;100954.94;5041170;28;20036;-70
2022/05/31 11:07:24;;;;;;;7.05;4.00;;;;;;;21.05;41.31;100957.44;5025951;28;20396;-70
2022/05/31 11:13:29;;;;;;;;;;;;;;;20.85;42.20;100949.78;5030225;28;20044;-70
2022/05/31 11:16:03;;;;;;;7.70;3.47;;;;;;;21.30;40.83;100957.31;5024775;28;20502;-70
2022/05/31 11:18:28;;;;;;;6.93;3.17;;;;;;;21.31;40.99;100952.88;5040572;28;20123;-70
2022/05/31 11:21:07;;;;;;;8.18;2.78;;;;;;;21.42;41.06;100948.66;5025801;28;20758;-70
2022/05/31 11:23:48;;;;;;;8.57;3.55;;;;;;;21.48;40.56;100951.25;5043885;28;20034;-70
2022/05/31 11:26:41;;;;;;;6.57;3.22;;;;;;;21.46;40.50;100952.50;5041404;28;20408;-70
2022/05/31 11:29:19;;;;;;;7.88;3.33;;;;;;;21.41;39.30;100947.06;5041338;28;20037;-70
2022/05/31 11:31:59;;;;;;;7.55;2.13;;;;;;;21.77;39.40;100944.31;5024445;28;20044;-70
2022/05/31 11:34:29;;;;;;;6.97;3.70;;;;;;;22.19;38.92;100947.91;5026057;28;20453;-70
2022/05/31 11:37:40;;;;;;;5.53;2.40;;;;;;;22.65;39.56;100944.47;5026701;28;20029;-71
2022/05/31 11:40:19;;;;;;;7.15;2.88;;;;;;;22.58;38.56;100943.78;5025955;28;20025;-70
2022/05/31 11:43:35;;;;;;;7.55;2.85;;;;;;;22.79;37.94;100936.25;5024691;28;20052;-70
2022/05/31 11:46:19;;;;;;;5.30;2.42;;;;;;;22.72;38.49;100931.13;5024723;28;20085;-70
2022/05/31 11:49:09;;;;;;;7.60;2.90;;;;;;;23.12;37.68;100940.91;5024026;28;20045;-70
2022/05/31 11:51:37;;;;;;;5.78;2.78;;;;;;;23.21;37.44;100931.56;5027403;28;20143;-70
2022/05/31 11:54:25;;;;;;;6.55;2.40;;;;;;;23.09;34.85;100931.63;5025087;28;20040;-70
2022/05/31 11:57:47;;;;;;;6.45;2.70;;;;;;;22.31;36.93;100931.06;5039398;28;20821;-71
2022/05/31 12:00:15;;;;;;;8.52;4.28;;;;;;;22.05;36.45;100939.41;5039025;28;20633;-70
2022/05/31 12:02:56;;;;;;;3.53;2.25;;;;;;;21.90;36.36;100935.38;5040991;28;20060;-71
2022/05/31 12:05:50;;;;;;;7.30;3.47;;;;;;;21.71;37.20;100921.47;5033076;28;20065;-70
2022/05/31 12:08:23;;;;;;;4.72;2.03;;;;;;;21.88;36.92;100929.53;5040241;28;20052;-70
2022/05/31 12:10:53;;;;;;;5.40;1.88;;;;;;;22.48;37.09;100917.94;5033666;28;20082;-70
2022/05/31 12:13:20;;;;;;;6.05;2.92;;;;;;;22.85;36.91;100916.81;5023976;28;20066;-71
2022/05/31 12:15:50;;;;;;;6.22;2.40;;;;;;;22.95;37.88;100914.38;5021237;28;20116;-70
2022/05/31 12:18:37;;;;;;;4.90;2.63;;;;;;;22.91;38.08;100914.06;5024447;28;20396;-70
2022/05/31 12:21:14;;;;;;;4.22;2.47;;;;;;;22.66;37.35;100918.81;5005849;28;20108;-70
2022/05/31 12:23:46;;;;;;;5.78;2.40;;;;;;;22.55;37.22;100920.47;5024228;28;20648;-70